Flight Track Log - Related Links

Times and Time Zones

All times are in EDT time to prevent confusion due to time zone crossing. See the OPT732 flight status page for this flight to view local times or setup timezone preferences in your user account.

Time Position Orientation Groundspeed Altitude Reporting Facility
EDT Latitude Longitude Course Direction KTS MPH feet Rate Location/Type
Wed 10:16:16 AM 29.6142 -90.6692 350° North 202 232 3,300  Level Houston Center
Wed 10:17:18 AM 29.6333 -90.7406 287° West 271 312 7,400 3,242 Climbing Houston Center
Wed 10:18:20 AM 29.6339 -90.8281 270° West 272 313 10,000 2,323 Climbing Houston Center
Wed 10:19:22 AM 29.6350 -90.9389 271° West 339 390 12,200 2,371 Climbing Houston Center
Wed 10:20:24 AM 29.6378 -91.0467 272° West 341 392 14,900 2,448 Climbing Houston Center
Wed 10:21:27 AM 29.6411 -91.1589 272° West 351 404 17,300 2,592 Climbing Houston Center
Wed 10:22:29 AM 29.6453 -91.2956 272° West 356 410 20,300 2,419 Climbing Houston Center
Wed 10:23:31 AM 29.6467 -91.4125 271° West 366 421 22,300 2,081 Climbing Houston Center
Wed 10:24:33 AM 29.6511 -91.5367 272° West 387 445 24,600 2,081 Climbing Houston Center
Wed 10:25:35 AM 29.6575 -91.6606 273° West 390 449 26,600 1,839 Climbing Houston Center
Wed 10:26:37 AM 29.6625 -91.7858 273° West 405 466 28,400 2,081 Climbing Houston Center
Wed 10:27:39 AM 29.6697 -91.9464 273° West 418 481 30,900 2,226 Climbing Houston Center
Wed 10:28:41 AM 29.6292 -92.0761 250° West 441 507 33,000 2,064 Climbing Houston Center
Wed 10:29:44 AM 29.5789 -92.2042 246° West 440 506 35,200 2,064 Climbing Houston Center
Wed 10:30:46 AM 29.5414 -92.3369 252° West 438 504 37,300 1,597 Climbing Houston Center
Wed 10:31:48 AM 29.5039 -92.4719 252° West 441 507 38,500 1,161 Climbing Houston Center
Wed 10:32:50 AM 29.4653 -92.6081 252° West 446 513 39,700 726 Climbing Houston Center
Wed 10:33:52 AM 29.4444 -92.7811 262° West 455 524 40,000 145 Climbing Houston Center
Wed 10:34:54 AM 29.4481 -92.9283 272° West 461 531 40,000  Level Houston Center
Wed 10:35:56 AM 29.4525 -93.0753 272° West 462 532 40,000  Level Houston Center
Wed 10:36:58 AM 29.4558 -93.2228 272° West 462 532 40,000  Level Houston Center
Wed 10:38:00 AM 29.4600 -93.3675 272° West 457 526 40,000  Level Houston Center
Wed 10:39:03 AM 29.4683 -93.5139 274° West 457 526 40,000  Level Houston Center
Wed 10:40:05 AM 29.4897 -93.6856 278° West 451 519 40,000  Level Houston Center
Wed 10:41:07 AM 29.5075 -93.8281 278° West 451 519 40,000  Level Houston Center
Wed 10:42:09 AM 29.5244 -93.9625 278° West 431 496 40,000  Level Houston Center
Wed 10:43:11 AM 29.5414 -94.1025 278° West 440 506 40,000 -532 Level Houston Center
Wed 10:44:13 AM 29.5597 -94.2453 278° West 464 534 38,900 -2,032 Descending Houston Center
Wed 10:45:15 AM 29.5808 -94.4203 278° West 463 533 35,800 -2,688 Descending Houston Center
Wed 10:46:18 AM 29.5969 -94.5592 278° West 443 510 33,300 -2,304 Descending Houston Center
Wed 10:47:20 AM 29.6133 -94.6967 278° West 437 503 31,000 -1,597 Descending Houston Center
Wed 10:48:22 AM 29.6300 -94.8328 278° West 432 497 30,000 -484 Descending Houston Center
Wed 10:49:24 AM 29.6467 -94.9767 278° West 453 521 30,000  Level Houston Center
Wed 10:50:26 AM 29.6647 -95.1403 277° West 480 552 30,000  Level Houston Center
Wed 10:51:28 AM 29.6844 -95.3094 278° West 494 568 30,000  Level Houston Center
Wed 10:52:30 AM 29.7019 -95.4669 277° West 500 575 30,000 -435 Level Houston Center
Wed 10:53:32 AM 29.7192 -95.6225 277° West 495 570 29,100 -1,355 Descending Houston Center
Wed 10:54:34 AM 29.7378 -95.7992 277° West 469 540 27,200 -1,742 Descending Houston Center
Wed 10:55:36 AM 29.7544 -95.9464 277° West 466 536 25,500 -1,694 Descending Houston Center
Wed 10:56:38 AM 29.7892 -96.0731 288° West 440 506 23,700 -2,064 Descending Houston Center
Wed 10:57:41 AM 29.8292 -96.1917 291° West 401 461 21,200 -2,640 Descending Houston Center
Wed 10:58:43 AM 29.8708 -96.3197 291° West 362 417 18,200 -2,661 Descending Houston Center
Wed 10:59:45 AM 29.9081 -96.4339 291° West 379 436 15,700 -2,419 Descending Houston Center
Wed 11:00:47 AM 29.9461 -96.5511 291° West 391 450 13,200 -1,742 Descending Houston Center
Wed 11:01:49 AM 29.9833 -96.6656 291° West 385 443 12,100 -532 Descending Houston Center
Wed 11:02:51 AM 30.0214 -96.7828 291° West 391 450 12,100 -48 Level Houston Center
Wed 11:03:53 AM 30.0589 -96.9011 290° West 324 373 12,000 -629 Descending Houston Center
Wed 11:04:55 AM 30.0864 -96.9872 290° West 294 338 10,800 -1,306 Descending Houston Center
Wed 11:05:57 AM 30.1142 -97.0697 291° West 276 318 9,300 -1,306 Descending Houston Center
Wed 11:06:59 AM 30.1425 -97.1531 291° West 275 316 8,100 -871 Descending Houston Center
Wed 11:08:01 AM 30.1703 -97.2364 291° West 275 316 7,500 -1,016 Descending Houston Center
Wed 11:09:03 AM 30.1994 -97.3158 293° West 269 310 6,000 -726 Descending Houston Center
Wed 11:10:05 AM 30.2258 -97.3925 292° West 259 298 6,000  Level Houston Center
Wed 11:11:07 AM 30.2558 -97.4722 294° West 237 273 6,000  Level Houston Center
Wed 11:12:09 AM 30.2969 -97.5197 315° West 234 269 6,000  Level Houston Center
Wed 11:13:11 AM 30.3597 -97.5269 354° North 226 260 6,000  Level Houston Center
Wed 11:14:13 AM 30.4197 -97.5319 356° North 216 249 6,000 -581 Level Houston Center
Wed 11:15:15 AM 30.4808 -97.5369 356° North 216 249 4,800 -1,248 Descending Houston Center
Wed 11:16:18 AM 30.5003 -97.5922 292° West 209 241 3,400 -1,104 Descending Houston Center
Wed 11:17:20 AM 30.4747 -97.6347 235° Southwest 198 228 2,500 -484 Descending Houston Center
Wed 11:18:22 AM 30.4219 -97.6581 201° Southwest 180 207 2,400  Descending Houston Center
Wed 11:19:24 AM 30.3839 -97.6650 189° South 154 177 2,500 48 Climbing Houston Center
Wed 11:20:26 AM 30.3469 -97.6611 175° South 137 158 2,500  Level Houston Center
Wed 11:21:28 AM 30.3094 -97.6600 179° South 134 154 2,500 -339 Level Houston Center
Wed 11:22:30 AM 30.2722 -97.6597 180° South 133 153 1,800 -629 Descending Houston Center
Wed 11:23:32 AM 30.2269 -97.6592 179° South 137 158 1,200 -581 Descending Houston Center

Login

Don't have an account? Register now (free) for customized features, flight alerts, and more!